Contact Info

Augusta Flying Club, Inc

KDNL 180953Z AUTO 00000KT 7SM CLR 23/23 A3013 RMK AO2 SLP197 T02330228


TAF AMD KDNL 180900Z 1809/1906 VRB03KT P6SM FEW250 FM181800 17006KT P6SM SCT060

info@augustaflyingclub.com

Send us a message